sensor_id;sensor_type;location;lat;lon;timestamp;P1;durP1;ratioP1;P2;durP2;ratioP2
19127;SDS011;9696;53.686;10.094;2023-12-22T00:01:59;13.00;;;2.90;;
19127;SDS011;9696;53.686;10.094;2023-12-22T00:04:27;8.20;;;1.93;;
19127;SDS011;9696;53.686;10.094;2023-12-22T00:07:00;15.97;;;2.23;;
19127;SDS011;9696;53.686;10.094;2023-12-22T00:09:29;13.83;;;2.27;;
19127;SDS011;9696;53.686;10.094;2023-12-22T00:11:57;17.60;;;2.77;;
19127;SDS011;9696;53.686;10.094;2023-12-22T00:14:29;16.57;;;2.10;;
19127;SDS011;9696;53.686;10.094;2023-12-22T00:16:57;11.47;;;2.23;;
19127;SDS011;9696;53.686;10.094;2023-12-22T00:19:26;14.93;;;2.17;;
19127;SDS011;9696;53.686;10.094;2023-12-22T00:21:55;15.93;;;1.83;;
19127;SDS011;9696;53.686;10.094;2023-12-22T00:24:24;12.80;;;2.00;;
19127;SDS011;9696;53.686;10.094;2023-12-22T00:26:53;16.77;;;2.57;;
19127;SDS011;9696;53.686;10.094;2023-12-22T00:29:22;17.00;;;2.60;;
19127;SDS011;9696;53.686;10.094;2023-12-22T00:31:52;8.07;;;1.80;;
19127;SDS011;9696;53.686;10.094;2023-12-22T00:34:23;20.20;;;2.43;;
19127;SDS011;9696;53.686;10.094;2023-12-22T00:36:53;14.90;;;2.27;;
19127;SDS011;9696;53.686;10.094;2023-12-22T00:39:22;13.97;;;2.73;;
19127;SDS011;9696;53.686;10.094;2023-12-22T00:41:50;18.03;;;2.80;;
19127;SDS011;9696;53.686;10.094;2023-12-22T00:44:26;16.57;;;2.53;;
19127;SDS011;9696;53.686;10.094;2023-12-22T00:46:57;17.03;;;2.90;;
19127;SDS011;9696;53.686;10.094;2023-12-22T00:49:26;21.03;;;2.50;;
19127;SDS011;9696;53.686;10.094;2023-12-22T00:51:55;24.10;;;2.60;;
19127;SDS011;9696;53.686;10.094;2023-12-22T00:54:23;13.10;;;2.30;;
19127;SDS011;9696;53.686;10.094;2023-12-22T00:56:52;18.07;;;2.77;;
19127;SDS011;9696;53.686;10.094;2023-12-22T00:59:21;21.70;;;1.60;;
19127;SDS011;9696;53.686;10.094;2023-12-22T01:01:50;8.03;;;1.77;;
19127;SDS011;9696;53.686;10.094;2023-12-22T01:04:20;11.43;;;2.47;;
19127;SDS011;9696;53.686;10.094;2023-12-22T01:06:49;7.70;;;1.50;;
19127;SDS011;9696;53.686;10.094;2023-12-22T01:09:18;11.67;;;2.23;;
19127;SDS011;9696;53.686;10.094;2023-12-22T01:11:50;8.90;;;2.10;;
19127;SDS011;9696;53.686;10.094;2023-12-22T01:14:19;13.33;;;2.00;;
19127;SDS011;9696;53.686;10.094;2023-12-22T01:16:53;11.27;;;1.70;;
19127;SDS011;9696;53.686;10.094;2023-12-22T01:19:23;15.13;;;2.97;;
19127;SDS011;9696;53.686;10.094;2023-12-22T01:21:52;7.07;;;2.10;;
19127;SDS011;9696;53.686;10.094;2023-12-22T01:24:21;11.60;;;2.23;;
19127;SDS011;9696;53.686;10.094;2023-12-22T01:26:52;11.53;;;1.93;;
19127;SDS011;9696;53.686;10.094;2023-12-22T01:29:20;13.47;;;1.97;;
19127;SDS011;9696;53.686;10.094;2023-12-22T01:31:49;19.20;;;3.07;;
19127;SDS011;9696;53.686;10.094;2023-12-22T01:34:19;12.73;;;1.93;;
19127;SDS011;9696;53.686;10.094;2023-12-22T01:36:50;16.50;;;2.30;;
19127;SDS011;9696;53.686;10.094;2023-12-22T01:39:19;25.53;;;2.00;;
19127;SDS011;9696;53.686;10.094;2023-12-22T01:41:49;13.53;;;1.70;;
19127;SDS011;9696;53.686;10.094;2023-12-22T01:44:18;12.87;;;1.70;;
19127;SDS011;9696;53.686;10.094;2023-12-22T01:46:46;12.80;;;1.50;;
19127;SDS011;9696;53.686;10.094;2023-12-22T01:49:17;9.63;;;1.57;;
19127;SDS011;9696;53.686;10.094;2023-12-22T01:51:46;11.70;;;2.23;;
19127;SDS011;9696;53.686;10.094;2023-12-22T01:54:16;10.07;;;1.00;;
19127;SDS011;9696;53.686;10.094;2023-12-22T01:56:46;10.67;;;2.00;;
19127;SDS011;9696;53.686;10.094;2023-12-22T01:59:14;6.47;;;1.20;;
19127;SDS011;9696;53.686;10.094;2023-12-22T02:01:44;9.47;;;1.30;;
19127;SDS011;9696;53.686;10.094;2023-12-22T02:04:14;3.77;;;0.93;;
19127;SDS011;9696;53.686;10.094;2023-12-22T02:06:44;4.53;;;1.03;;
19127;SDS011;9696;53.686;10.094;2023-12-22T02:09:13;5.23;;;0.80;;
19127;SDS011;9696;53.686;10.094;2023-12-22T02:11:43;6.27;;;0.90;;
19127;SDS011;9696;53.686;10.094;2023-12-22T02:14:13;6.53;;;0.90;;
19127;SDS011;9696;53.686;10.094;2023-12-22T02:16:42;7.20;;;1.57;;
19127;SDS011;9696;53.686;10.094;2023-12-22T02:19:15;5.67;;;0.90;;
19127;SDS011;9696;53.686;10.094;2023-12-22T02:22:00;3.60;;;0.90;;
19127;SDS011;9696;53.686;10.094;2023-12-22T02:24:36;3.87;;;0.73;;
19127;SDS011;9696;53.686;10.094;2023-12-22T02:27:05;6.33;;;0.97;;
19127;SDS011;9696;53.686;10.094;2023-12-22T02:29:35;3.43;;;0.63;;
19127;SDS011;9696;53.686;10.094;2023-12-22T02:32:06;1.37;;;0.50;;
19127;SDS011;9696;53.686;10.094;2023-12-22T02:34:35;2.83;;;0.90;;
19127;SDS011;9696;53.686;10.094;2023-12-22T02:37:05;7.33;;;1.57;;
19127;SDS011;9696;53.686;10.094;2023-12-22T02:39:37;5.63;;;0.70;;
19127;SDS011;9696;53.686;10.094;2023-12-22T02:42:08;2.80;;;0.80;;
19127;SDS011;9696;53.686;10.094;2023-12-22T02:44:41;6.53;;;0.87;;
19127;SDS011;9696;53.686;10.094;2023-12-22T02:47:10;0.60;;;0.60;;
19127;SDS011;9696;53.686;10.094;2023-12-22T02:49:40;4.70;;;0.90;;
19127;SDS011;9696;53.686;10.094;2023-12-22T02:52:09;6.70;;;1.30;;
19127;SDS011;9696;53.686;10.094;2023-12-22T02:54:40;2.47;;;0.60;;
19127;SDS011;9696;53.686;10.094;2023-12-22T02:57:08;14.57;;;1.10;;
19127;SDS011;9696;53.686;10.094;2023-12-22T02:59:38;8.13;;;0.70;;
19127;SDS011;9696;53.686;10.094;2023-12-22T03:02:07;1.90;;;0.53;;
19127;SDS011;9696;53.686;10.094;2023-12-22T03:04:35;3.10;;;0.63;;
19127;SDS011;9696;53.686;10.094;2023-12-22T03:07:04;14.70;;;1.30;;
19127;SDS011;9696;53.686;10.094;2023-12-22T03:09:36;4.10;;;1.23;;
19127;SDS011;9696;53.686;10.094;2023-12-22T03:12:07;4.07;;;0.40;;
19127;SDS011;9696;53.686;10.094;2023-12-22T03:14:38;1.50;;;0.57;;
19127;SDS011;9696;53.686;10.094;2023-12-22T03:17:07;4.97;;;0.43;;
19127;SDS011;9696;53.686;10.094;2023-12-22T03:19:38;2.13;;;0.70;;
19127;SDS011;9696;53.686;10.094;2023-12-22T03:22:08;6.53;;;0.80;;
19127;SDS011;9696;53.686;10.094;2023-12-22T03:24:37;0.83;;;0.47;;
19127;SDS011;9696;53.686;10.094;2023-12-22T03:27:09;1.40;;;0.57;;
19127;SDS011;9696;53.686;10.094;2023-12-22T03:29:43;6.33;;;0.87;;
19127;SDS011;9696;53.686;10.094;2023-12-22T03:32:12;7.50;;;0.90;;
19127;SDS011;9696;53.686;10.094;2023-12-22T03:34:40;4.00;;;0.67;;
19127;SDS011;9696;53.686;10.094;2023-12-22T03:37:09;3.40;;;0.60;;
19127;SDS011;9696;53.686;10.094;2023-12-22T03:39:42;1.90;;;0.47;;
19127;SDS011;9696;53.686;10.094;2023-12-22T03:42:14;1.30;;;0.30;;
19127;SDS011;9696;53.686;10.094;2023-12-22T03:44:44;2.53;;;0.60;;
19127;SDS011;9696;53.686;10.094;2023-12-22T03:47:13;5.53;;;0.63;;
19127;SDS011;9696;53.686;10.094;2023-12-22T03:49:42;6.77;;;0.60;;
19127;SDS011;9696;53.686;10.094;2023-12-22T03:52:12;3.90;;;0.70;;
19127;SDS011;9696;53.686;10.094;2023-12-22T03:54:41;6.33;;;0.73;;
19127;SDS011;9696;53.686;10.094;2023-12-22T03:57:10;3.80;;;0.60;;
19127;SDS011;9696;53.686;10.094;2023-12-22T03:59:40;7.27;;;0.87;;
19127;SDS011;9696;53.686;10.094;2023-12-22T04:02:10;8.37;;;1.27;;
19127;SDS011;9696;53.686;10.094;2023-12-22T04:04:39;1.40;;;0.70;;
19127;SDS011;9696;53.686;10.094;2023-12-22T04:07:08;8.37;;;1.00;;
19127;SDS011;9696;53.686;10.094;2023-12-22T04:09:37;5.90;;;0.87;;
19127;SDS011;9696;53.686;10.094;2023-12-22T04:12:06;8.40;;;0.80;;
19127;SDS011;9696;53.686;10.094;2023-12-22T04:14:35;2.37;;;1.03;;
19127;SDS011;9696;53.686;10.094;2023-12-22T04:17:05;9.30;;;0.97;;
19127;SDS011;9696;53.686;10.094;2023-12-22T04:19:35;7.40;;;1.03;;
19127;SDS011;9696;53.686;10.094;2023-12-22T04:22:04;7.27;;;0.80;;
19127;SDS011;9696;53.686;10.094;2023-12-22T04:24:32;4.87;;;0.80;;
19127;SDS011;9696;53.686;10.094;2023-12-22T04:27:01;10.97;;;1.40;;
19127;SDS011;9696;53.686;10.094;2023-12-22T04:29:30;10.07;;;1.30;;
19127;SDS011;9696;53.686;10.094;2023-12-22T04:31:58;6.37;;;1.40;;
19127;SDS011;9696;53.686;10.094;2023-12-22T04:34:28;6.83;;;1.53;;
19127;SDS011;9696;53.686;10.094;2023-12-22T04:36:57;12.60;;;2.13;;
19127;SDS011;9696;53.686;10.094;2023-12-22T04:39:26;2.90;;;1.00;;
19127;SDS011;9696;53.686;10.094;2023-12-22T04:41:54;6.93;;;0.63;;
19127;SDS011;9696;53.686;10.094;2023-12-22T04:44:23;13.30;;;2.00;;
19127;SDS011;9696;53.686;10.094;2023-12-22T04:46:52;7.27;;;0.93;;
19127;SDS011;9696;53.686;10.094;2023-12-22T04:49:20;18.83;;;1.33;;
19127;SDS011;9696;53.686;10.094;2023-12-22T04:51:51;7.37;;;0.90;;
19127;SDS011;9696;53.686;10.094;2023-12-22T04:54:20;9.83;;;1.97;;
19127;SDS011;9696;53.686;10.094;2023-12-22T04:56:49;9.63;;;1.33;;
19127;SDS011;9696;53.686;10.094;2023-12-22T04:59:20;6.83;;;1.23;;
19127;SDS011;9696;53.686;10.094;2023-12-22T05:01:49;7.50;;;0.97;;
19127;SDS011;9696;53.686;10.094;2023-12-22T05:04:18;13.10;;;1.67;;
19127;SDS011;9696;53.686;10.094;2023-12-22T05:06:53;6.47;;;1.40;;
19127;SDS011;9696;53.686;10.094;2023-12-22T05:09:24;13.33;;;1.77;;
19127;SDS011;9696;53.686;10.094;2023-12-22T05:11:54;14.57;;;1.80;;
19127;SDS011;9696;53.686;10.094;2023-12-22T05:14:25;10.57;;;1.83;;
19127;SDS011;9696;53.686;10.094;2023-12-22T05:16:53;9.00;;;1.73;;
19127;SDS011;9696;53.686;10.094;2023-12-22T05:19:23;14.37;;;1.00;;
19127;SDS011;9696;53.686;10.094;2023-12-22T05:21:53;11.87;;;1.67;;
19127;SDS011;9696;53.686;10.094;2023-12-22T05:24:23;11.43;;;1.63;;
19127;SDS011;9696;53.686;10.094;2023-12-22T05:26:52;11.87;;;1.20;;
19127;SDS011;9696;53.686;10.094;2023-12-22T05:29:21;16.70;;;1.63;;
19127;SDS011;9696;53.686;10.094;2023-12-22T05:31:51;12.23;;;1.70;;
19127;SDS011;9696;53.686;10.094;2023-12-22T05:34:20;7.03;;;1.53;;
19127;SDS011;9696;53.686;10.094;2023-12-22T05:36:51;12.77;;;1.30;;
19127;SDS011;9696;53.686;10.094;2023-12-22T05:39:21;11.33;;;2.17;;
19127;SDS011;9696;53.686;10.094;2023-12-22T05:41:51;2.57;;;0.47;;
19127;SDS011;9696;53.686;10.094;2023-12-22T05:44:21;2.87;;;0.70;;
19127;SDS011;9696;53.686;10.094;2023-12-22T05:46:50;5.70;;;0.90;;
19127;SDS011;9696;53.686;10.094;2023-12-22T05:49:21;4.00;;;0.87;;
19127;SDS011;9696;53.686;10.094;2023-12-22T05:51:52;2.10;;;1.40;;
19127;SDS011;9696;53.686;10.094;2023-12-22T05:54:22;12.93;;;1.13;;
19127;SDS011;9696;53.686;10.094;2023-12-22T05:56:52;5.70;;;0.77;;
19127;SDS011;9696;53.686;10.094;2023-12-22T05:59:24;8.73;;;1.17;;
19127;SDS011;9696;53.686;10.094;2023-12-22T06:01:54;7.53;;;1.00;;
19127;SDS011;9696;53.686;10.094;2023-12-22T06:04:23;8.87;;;1.00;;
19127;SDS011;9696;53.686;10.094;2023-12-22T06:06:52;5.23;;;1.40;;
19127;SDS011;9696;53.686;10.094;2023-12-22T06:09:22;9.50;;;1.10;;
19127;SDS011;9696;53.686;10.094;2023-12-22T06:11:51;0.73;;;0.53;;
19127;SDS011;9696;53.686;10.094;2023-12-22T06:14:20;6.53;;;1.00;;
19127;SDS011;9696;53.686;10.094;2023-12-22T06:16:49;5.67;;;0.97;;
19127;SDS011;9696;53.686;10.094;2023-12-22T06:19:20;7.70;;;0.87;;
19127;SDS011;9696;53.686;10.094;2023-12-22T06:21:51;6.80;;;1.40;;
19127;SDS011;9696;53.686;10.094;2023-12-22T06:24:20;5.53;;;0.93;;
19127;SDS011;9696;53.686;10.094;2023-12-22T06:26:50;12.50;;;1.33;;
19127;SDS011;9696;53.686;10.094;2023-12-22T06:29:19;14.90;;;2.00;;
19127;SDS011;9696;53.686;10.094;2023-12-22T06:31:47;6.50;;;1.43;;
19127;SDS011;9696;53.686;10.094;2023-12-22T06:34:17;4.37;;;1.10;;
19127;SDS011;9696;53.686;10.094;2023-12-22T06:36:46;6.80;;;1.57;;
19127;SDS011;9696;53.686;10.094;2023-12-22T06:39:16;12.37;;;1.77;;
19127;SDS011;9696;53.686;10.094;2023-12-22T06:41:48;15.27;;;2.07;;
19127;SDS011;9696;53.686;10.094;2023-12-22T06:44:19;4.30;;;1.00;;
19127;SDS011;9696;53.686;10.094;2023-12-22T06:46:48;9.40;;;1.73;;
19127;SDS011;9696;53.686;10.094;2023-12-22T06:49:17;11.87;;;2.53;;
19127;SDS011;9696;53.686;10.094;2023-12-22T06:51:45;10.10;;;1.00;;
19127;SDS011;9696;53.686;10.094;2023-12-22T06:54:14;8.03;;;1.90;;
19127;SDS011;9696;53.686;10.094;2023-12-22T06:56:44;8.73;;;2.20;;
19127;SDS011;9696;53.686;10.094;2023-12-22T06:59:13;13.47;;;1.50;;
19127;SDS011;9696;53.686;10.094;2023-12-22T07:01:46;23.77;;;2.07;;
19127;SDS011;9696;53.686;10.094;2023-12-22T07:04:30;18.40;;;2.30;;
19127;SDS011;9696;53.686;10.094;2023-12-22T07:07:01;6.90;;;1.57;;
19127;SDS011;9696;53.686;10.094;2023-12-22T07:09:30;9.07;;;1.33;;
19127;SDS011;9696;53.686;10.094;2023-12-22T07:11:59;8.13;;;1.87;;
19127;SDS011;9696;53.686;10.094;2023-12-22T07:14:30;17.13;;;1.63;;
19127;SDS011;9696;53.686;10.094;2023-12-22T07:17:04;6.90;;;1.53;;
19127;SDS011;9696;53.686;10.094;2023-12-22T07:19:33;11.43;;;1.47;;
19127;SDS011;9696;53.686;10.094;2023-12-22T07:22:03;28.57;;;2.27;;
19127;SDS011;9696;53.686;10.094;2023-12-22T07:24:31;10.13;;;1.63;;
19127;SDS011;9696;53.686;10.094;2023-12-22T07:27:17;4.67;;;1.17;;
19127;SDS011;9696;53.686;10.094;2023-12-22T07:29:46;6.93;;;2.60;;
19127;SDS011;9696;53.686;10.094;2023-12-22T07:32:18;8.30;;;1.43;;
19127;SDS011;9696;53.686;10.094;2023-12-22T07:34:47;18.33;;;3.17;;
19127;SDS011;9696;53.686;10.094;2023-12-22T07:37:16;6.70;;;2.13;;
19127;SDS011;9696;53.686;10.094;2023-12-22T07:39:44;18.40;;;2.67;;
19127;SDS011;9696;53.686;10.094;2023-12-22T07:42:13;12.30;;;2.07;;
19127;SDS011;9696;53.686;10.094;2023-12-22T07:44:43;14.43;;;2.70;;
19127;SDS011;9696;53.686;10.094;2023-12-22T07:47:23;12.80;;;2.10;;
19127;SDS011;9696;53.686;10.094;2023-12-22T07:49:53;16.03;;;1.77;;
19127;SDS011;9696;53.686;10.094;2023-12-22T07:52:22;14.83;;;2.17;;
19127;SDS011;9696;53.686;10.094;2023-12-22T07:54:51;14.20;;;2.70;;
19127;SDS011;9696;53.686;10.094;2023-12-22T07:57:31;8.17;;;1.47;;
19127;SDS011;9696;53.686;10.094;2023-12-22T08:00:00;5.97;;;1.67;;
19127;SDS011;9696;53.686;10.094;2023-12-22T08:02:38;11.10;;;1.77;;
19127;SDS011;9696;53.686;10.094;2023-12-22T08:05:10;15.33;;;2.90;;
19127;SDS011;9696;53.686;10.094;2023-12-22T08:07:39;19.70;;;2.30;;
19127;SDS011;9696;53.686;10.094;2023-12-22T08:10:07;12.23;;;2.13;;
19127;SDS011;9696;53.686;10.094;2023-12-22T08:12:36;14.67;;;1.70;;
19127;SDS011;9696;53.686;10.094;2023-12-22T08:15:05;12.33;;;2.00;;
19127;SDS011;9696;53.686;10.094;2023-12-22T08:17:48;9.03;;;2.23;;
19127;SDS011;9696;53.686;10.094;2023-12-22T08:20:18;12.77;;;2.33;;
19127;SDS011;9696;53.686;10.094;2023-12-22T08:22:58;8.60;;;2.27;;
19127;SDS011;9696;53.686;10.094;2023-12-22T08:25:33;3.93;;;1.20;;
19127;SDS011;9696;53.686;10.094;2023-12-22T08:28:02;7.33;;;1.20;;
19127;SDS011;9696;53.686;10.094;2023-12-22T08:30:31;7.73;;;1.53;;
19127;SDS011;9696;53.686;10.094;2023-12-22T08:33:02;8.53;;;1.37;;
19127;SDS011;9696;53.686;10.094;2023-12-22T08:35:31;10.17;;;1.93;;
19127;SDS011;9696;53.686;10.094;2023-12-22T08:37:59;10.37;;;2.00;;
19127;SDS011;9696;53.686;10.094;2023-12-22T08:40:29;3.93;;;1.10;;
19127;SDS011;9696;53.686;10.094;2023-12-22T08:42:59;12.07;;;1.67;;
19127;SDS011;9696;53.686;10.094;2023-12-22T08:45:28;10.13;;;1.80;;
19127;SDS011;9696;53.686;10.094;2023-12-22T08:47:58;10.27;;;2.03;;
19127;SDS011;9696;53.686;10.094;2023-12-22T08:50:29;22.77;;;2.63;;
19127;SDS011;9696;53.686;10.094;2023-12-22T08:52:57;10.43;;;2.20;;
19127;SDS011;9696;53.686;10.094;2023-12-22T08:55:26;12.67;;;1.70;;
19127;SDS011;9696;53.686;10.094;2023-12-22T08:57:56;3.80;;;1.30;;
19127;SDS011;9696;53.686;10.094;2023-12-22T09:00:31;10.80;;;1.73;;
19127;SDS011;9696;53.686;10.094;2023-12-22T09:03:00;11.70;;;1.40;;
19127;SDS011;9696;53.686;10.094;2023-12-22T09:05:31;7.63;;;1.37;;
19127;SDS011;9696;53.686;10.094;2023-12-22T09:08:00;16.57;;;3.00;;
19127;SDS011;9696;53.686;10.094;2023-12-22T09:10:28;12.97;;;1.60;;
19127;SDS011;9696;53.686;10.094;2023-12-22T09:12:58;13.20;;;1.63;;
19127;SDS011;9696;53.686;10.094;2023-12-22T09:15:27;8.67;;;1.47;;
19127;SDS011;9696;53.686;10.094;2023-12-22T09:17:56;8.27;;;1.40;;
19127;SDS011;9696;53.686;10.094;2023-12-22T09:20:25;3.90;;;1.27;;
19127;SDS011;9696;53.686;10.094;2023-12-22T09:22:56;7.40;;;1.40;;
19127;SDS011;9696;53.686;10.094;2023-12-22T09:25:25;9.43;;;1.10;;
19127;SDS011;9696;53.686;10.094;2023-12-22T09:27:54;4.20;;;1.00;;
19127;SDS011;9696;53.686;10.094;2023-12-22T09:30:23;9.87;;;1.23;;
19127;SDS011;9696;53.686;10.094;2023-12-22T09:32:51;11.07;;;1.33;;
19127;SDS011;9696;53.686;10.094;2023-12-22T09:35:20;13.77;;;2.43;;
19127;SDS011;9696;53.686;10.094;2023-12-22T09:37:51;9.33;;;1.83;;
19127;SDS011;9696;53.686;10.094;2023-12-22T09:40:21;7.80;;;1.90;;
19127;SDS011;9696;53.686;10.094;2023-12-22T09:42:50;9.90;;;1.47;;
19127;SDS011;9696;53.686;10.094;2023-12-22T09:45:24;5.93;;;1.13;;
19127;SDS011;9696;53.686;10.094;2023-12-22T09:47:53;13.30;;;2.17;;
19127;SDS011;9696;53.686;10.094;2023-12-22T09:50:23;5.57;;;1.47;;
19127;SDS011;9696;53.686;10.094;2023-12-22T09:52:52;12.57;;;1.60;;
19127;SDS011;9696;53.686;10.094;2023-12-22T09:55:22;9.50;;;1.60;;
19127;SDS011;9696;53.686;10.094;2023-12-22T09:57:52;10.40;;;1.77;;
19127;SDS011;9696;53.686;10.094;2023-12-22T10:00:23;14.60;;;1.20;;
19127;SDS011;9696;53.686;10.094;2023-12-22T10:02:52;7.93;;;1.23;;
19127;SDS011;9696;53.686;10.094;2023-12-22T10:05:21;10.97;;;1.97;;
19127;SDS011;9696;53.686;10.094;2023-12-22T10:07:49;8.90;;;1.97;;
19127;SDS011;9696;53.686;10.094;2023-12-22T10:10:19;7.17;;;1.20;;
19127;SDS011;9696;53.686;10.094;2023-12-22T10:12:49;10.27;;;1.60;;
19127;SDS011;9696;53.686;10.094;2023-12-22T10:15:26;12.27;;;1.43;;
19127;SDS011;9696;53.686;10.094;2023-12-22T10:17:55;11.67;;;2.03;;
19127;SDS011;9696;53.686;10.094;2023-12-22T10:20:25;11.57;;;1.43;;
19127;SDS011;9696;53.686;10.094;2023-12-22T10:22:54;8.40;;;1.67;;
19127;SDS011;9696;53.686;10.094;2023-12-22T10:25:25;12.33;;;1.30;;
19127;SDS011;9696;53.686;10.094;2023-12-22T10:27:57;2.60;;;1.10;;
19127;SDS011;9696;53.686;10.094;2023-12-22T10:30:33;7.87;;;1.23;;
19127;SDS011;9696;53.686;10.094;2023-12-22T10:33:03;6.77;;;1.17;;
19127;SDS011;9696;53.686;10.094;2023-12-22T10:35:32;7.73;;;2.10;;
19127;SDS011;9696;53.686;10.094;2023-12-22T10:38:01;6.23;;;1.30;;
19127;SDS011;9696;53.686;10.094;2023-12-22T10:40:30;6.87;;;1.37;;
19127;SDS011;9696;53.686;10.094;2023-12-22T10:43:00;18.67;;;1.10;;
19127;SDS011;9696;53.686;10.094;2023-12-22T10:45:29;1.93;;;1.13;;
19127;SDS011;9696;53.686;10.094;2023-12-22T10:47:58;9.53;;;1.43;;
19127;SDS011;9696;53.686;10.094;2023-12-22T10:50:29;8.43;;;1.83;;
19127;SDS011;9696;53.686;10.094;2023-12-22T10:52:57;24.47;;;1.80;;
19127;SDS011;9696;53.686;10.094;2023-12-22T10:55:29;6.63;;;1.30;;
19127;SDS011;9696;53.686;10.094;2023-12-22T10:58:02;12.53;;;1.63;;
19127;SDS011;9696;53.686;10.094;2023-12-22T11:00:31;12.23;;;1.53;;
19127;SDS011;9696;53.686;10.094;2023-12-22T11:03:01;7.50;;;1.43;;
19127;SDS011;9696;53.686;10.094;2023-12-22T11:05:32;12.37;;;1.33;;
19127;SDS011;9696;53.686;10.094;2023-12-22T11:08:01;4.03;;;1.37;;
19127;SDS011;9696;53.686;10.094;2023-12-22T11:10:30;6.30;;;1.50;;
19127;SDS011;9696;53.686;10.094;2023-12-22T11:12:59;7.77;;;1.10;;
19127;SDS011;9696;53.686;10.094;2023-12-22T11:15:30;7.60;;;1.27;;
19127;SDS011;9696;53.686;10.094;2023-12-22T11:17:59;6.97;;;1.30;;
19127;SDS011;9696;53.686;10.094;2023-12-22T11:20:29;11.30;;;1.17;;
19127;SDS011;9696;53.686;10.094;2023-12-22T11:23:01;9.50;;;1.50;;
19127;SDS011;9696;53.686;10.094;2023-12-22T11:25:33;8.83;;;1.03;;
19127;SDS011;9696;53.686;10.094;2023-12-22T11:28:03;6.73;;;1.27;;
19127;SDS011;9696;53.686;10.094;2023-12-22T11:30:34;5.70;;;1.07;;
19127;SDS011;9696;53.686;10.094;2023-12-22T11:33:06;7.53;;;1.00;;
19127;SDS011;9696;53.686;10.094;2023-12-22T11:35:35;7.43;;;1.10;;
19127;SDS011;9696;53.686;10.094;2023-12-22T11:38:05;13.20;;;2.03;;
19127;SDS011;9696;53.686;10.094;2023-12-22T11:40:34;15.20;;;1.30;;
19127;SDS011;9696;53.686;10.094;2023-12-22T11:43:03;6.50;;;1.20;;
19127;SDS011;9696;53.686;10.094;2023-12-22T11:45:33;12.20;;;1.73;;
19127;SDS011;9696;53.686;10.094;2023-12-22T11:48:06;13.93;;;2.30;;
19127;SDS011;9696;53.686;10.094;2023-12-22T11:50:35;11.63;;;2.00;;
19127;SDS011;9696;53.686;10.094;2023-12-22T11:53:17;7.33;;;1.20;;
19127;SDS011;9696;53.686;10.094;2023-12-22T11:55:59;4.10;;;1.17;;
19127;SDS011;9696;53.686;10.094;2023-12-22T11:58:32;3.93;;;1.23;;
19127;SDS011;9696;53.686;10.094;2023-12-22T12:01:03;9.57;;;1.50;;
19127;SDS011;9696;53.686;10.094;2023-12-22T12:03:35;8.83;;;1.60;;
19127;SDS011;9696;53.686;10.094;2023-12-22T12:06:15;10.13;;;1.10;;
19127;SDS011;9696;53.686;10.094;2023-12-22T12:08:45;5.43;;;1.50;;
19127;SDS011;9696;53.686;10.094;2023-12-22T12:11:15;10.57;;;1.80;;
19127;SDS011;9696;53.686;10.094;2023-12-22T12:13:44;7.37;;;1.40;;
19127;SDS011;9696;53.686;10.094;2023-12-22T12:16:15;11.00;;;1.83;;
19127;SDS011;9696;53.686;10.094;2023-12-22T12:18:44;8.00;;;1.67;;
19127;SDS011;9696;53.686;10.094;2023-12-22T12:21:13;7.30;;;1.27;;
19127;SDS011;9696;53.686;10.094;2023-12-22T12:23:41;5.17;;;1.43;;
19127;SDS011;9696;53.686;10.094;2023-12-22T12:26:17;6.47;;;1.30;;
19127;SDS011;9696;53.686;10.094;2023-12-22T12:28:47;8.33;;;1.40;;
19127;SDS011;9696;53.686;10.094;2023-12-22T12:31:23;8.63;;;1.77;;
19127;SDS011;9696;53.686;10.094;2023-12-22T12:34:04;8.73;;;1.23;;
19127;SDS011;9696;53.686;10.094;2023-12-22T12:36:33;21.13;;;2.67;;
19127;SDS011;9696;53.686;10.094;2023-12-22T12:39:06;9.53;;;1.90;;
19127;SDS011;9696;53.686;10.094;2023-12-22T12:41:36;8.30;;;1.40;;
19127;SDS011;9696;53.686;10.094;2023-12-22T12:44:06;12.87;;;1.37;;
19127;SDS011;9696;53.686;10.094;2023-12-22T12:46:36;6.13;;;1.10;;
19127;SDS011;9696;53.686;10.094;2023-12-22T12:49:06;8.50;;;1.40;;
19127;SDS011;9696;53.686;10.094;2023-12-22T12:51:37;14.27;;;1.50;;
19127;SDS011;9696;53.686;10.094;2023-12-22T12:54:06;4.67;;;1.30;;
19127;SDS011;9696;53.686;10.094;2023-12-22T12:56:36;5.10;;;0.70;;
19127;SDS011;9696;53.686;10.094;2023-12-22T12:59:06;8.13;;;1.03;;
19127;SDS011;9696;53.686;10.094;2023-12-22T13:01:40;5.50;;;1.53;;
19127;SDS011;9696;53.686;10.094;2023-12-22T13:04:10;6.60;;;0.97;;
19127;SDS011;9696;53.686;10.094;2023-12-22T13:06:43;11.03;;;1.00;;
19127;SDS011;9696;53.686;10.094;2023-12-22T13:09:15;3.03;;;0.80;;
19127;SDS011;9696;53.686;10.094;2023-12-22T13:11:46;4.03;;;1.13;;
19127;SDS011;9696;53.686;10.094;2023-12-22T13:14:21;4.57;;;0.70;;
19127;SDS011;9696;53.686;10.094;2023-12-22T13:16:53;3.37;;;0.87;;
19127;SDS011;9696;53.686;10.094;2023-12-22T13:19:24;2.73;;;1.00;;
19127;SDS011;9696;53.686;10.094;2023-12-22T13:21:54;2.67;;;1.00;;
19127;SDS011;9696;53.686;10.094;2023-12-22T13:24:23;8.20;;;1.10;;
19127;SDS011;9696;53.686;10.094;2023-12-22T13:27:00;6.97;;;1.00;;
19127;SDS011;9696;53.686;10.094;2023-12-22T13:29:41;4.07;;;0.93;;
19127;SDS011;9696;53.686;10.094;2023-12-22T13:34:56;2.00;;;1.03;;
19127;SDS011;9696;53.686;10.094;2023-12-22T13:37:25;5.87;;;1.20;;
19127;SDS011;9696;53.686;10.094;2023-12-22T13:39:59;5.10;;;0.70;;
19127;SDS011;9696;53.686;10.094;2023-12-22T13:42:32;11.60;;;1.63;;
19127;SDS011;9696;53.686;10.094;2023-12-22T13:45:01;5.53;;;1.03;;
19127;SDS011;9696;53.686;10.094;2023-12-22T13:47:31;5.07;;;0.73;;
19127;SDS011;9696;53.686;10.094;2023-12-22T13:50:01;6.00;;;1.40;;
19127;SDS011;9696;53.686;10.094;2023-12-22T13:52:31;4.83;;;0.93;;
19127;SDS011;9696;53.686;10.094;2023-12-22T13:55:09;3.80;;;1.03;;
19127;SDS011;9696;53.686;10.094;2023-12-22T13:57:38;4.03;;;1.03;;
19127;SDS011;9696;53.686;10.094;2023-12-22T14:00:26;7.57;;;1.43;;
19127;SDS011;9696;53.686;10.094;2023-12-22T14:02:56;4.57;;;1.33;;
19127;SDS011;9696;53.686;10.094;2023-12-22T14:05:26;15.27;;;1.47;;
19127;SDS011;9696;53.686;10.094;2023-12-22T14:08:00;5.63;;;1.10;;
19127;SDS011;9696;53.686;10.094;2023-12-22T14:10:29;6.20;;;1.00;;
19127;SDS011;9696;53.686;10.094;2023-12-22T14:12:58;7.87;;;1.60;;
19127;SDS011;9696;53.686;10.094;2023-12-22T14:15:30;8.63;;;1.40;;
19127;SDS011;9696;53.686;10.094;2023-12-22T14:18:10;8.97;;;3.17;;
19127;SDS011;9696;53.686;10.094;2023-12-22T14:20:42;12.23;;;3.47;;
19127;SDS011;9696;53.686;10.094;2023-12-22T14:23:12;8.33;;;1.70;;
19127;SDS011;9696;53.686;10.094;2023-12-22T14:25:43;5.93;;;1.97;;
19127;SDS011;9696;53.686;10.094;2023-12-22T14:28:12;9.10;;;1.73;;
19127;SDS011;9696;53.686;10.094;2023-12-22T14:30:41;11.27;;;1.47;;
19127;SDS011;9696;53.686;10.094;2023-12-22T14:33:12;8.37;;;1.80;;
19127;SDS011;9696;53.686;10.094;2023-12-22T14:35:42;6.63;;;1.03;;
19127;SDS011;9696;53.686;10.094;2023-12-22T14:38:12;6.83;;;1.17;;
19127;SDS011;9696;53.686;10.094;2023-12-22T14:40:41;8.50;;;1.70;;
19127;SDS011;9696;53.686;10.094;2023-12-22T14:43:10;11.50;;;2.00;;
19127;SDS011;9696;53.686;10.094;2023-12-22T14:45:46;10.03;;;1.17;;
19127;SDS011;9696;53.686;10.094;2023-12-22T14:48:15;3.30;;;1.13;;
19127;SDS011;9696;53.686;10.094;2023-12-22T14:50:45;7.73;;;1.57;;
19127;SDS011;9696;53.686;10.094;2023-12-22T14:53:16;10.90;;;1.30;;
19127;SDS011;9696;53.686;10.094;2023-12-22T14:55:45;9.90;;;1.50;;
19127;SDS011;9696;53.686;10.094;2023-12-22T14:58:14;4.53;;;1.73;;
19127;SDS011;9696;53.686;10.094;2023-12-22T15:00:43;5.93;;;1.70;;
19127;SDS011;9696;53.686;10.094;2023-12-22T15:03:12;5.93;;;2.37;;
19127;SDS011;9696;53.686;10.094;2023-12-22T15:05:41;12.13;;;3.57;;